sensor_id;sensor_type;location;lat;lon;timestamp;temperature;humidity
23731;DHT22;12046;44.702;10.622;2022-12-29T00:01:35;10.30;99.90
23731;DHT22;12046;44.702;10.622;2022-12-29T00:04:01;10.40;99.90
23731;DHT22;12046;44.702;10.622;2022-12-29T00:06:28;10.40;99.90
23731;DHT22;12046;44.702;10.622;2022-12-29T00:08:54;10.30;99.90
23731;DHT22;12046;44.702;10.622;2022-12-29T00:11:25;10.20;99.90
23731;DHT22;12046;44.702;10.622;2022-12-29T00:13:52;10.20;99.90
23731;DHT22;12046;44.702;10.622;2022-12-29T00:16:40;10.20;99.90
23731;DHT22;12046;44.702;10.622;2022-12-29T00:19:06;10.20;99.90
23731;DHT22;12046;44.702;10.622;2022-12-29T00:21:52;10.30;99.90
23731;DHT22;12046;44.702;10.622;2022-12-29T00:24:37;10.30;99.90
23731;DHT22;12046;44.702;10.622;2022-12-29T00:27:21;10.20;99.90
23731;DHT22;12046;44.702;10.622;2022-12-29T00:30:11;10.20;99.90
23731;DHT22;12046;44.702;10.622;2022-12-29T00:33:00;10.20;99.90
23731;DHT22;12046;44.702;10.622;2022-12-29T00:35:54;10.30;99.90
23731;DHT22;12046;44.702;10.622;2022-12-29T00:38:22;10.30;99.90
23731;DHT22;12046;44.702;10.622;2022-12-29T00:41:06;10.30;99.90
23731;DHT22;12046;44.702;10.622;2022-12-29T00:43:51;10.30;99.90
23731;DHT22;12046;44.702;10.622;2022-12-29T00:46:33;10.30;99.90
23731;DHT22;12046;44.702;10.622;2022-12-29T00:49:00;10.30;99.90
23731;DHT22;12046;44.702;10.622;2022-12-29T00:51:46;10.30;99.90
23731;DHT22;12046;44.702;10.622;2022-12-29T00:54:13;10.30;99.90
23731;DHT22;12046;44.702;10.622;2022-12-29T00:56:39;10.30;99.90
23731;DHT22;12046;44.702;10.622;2022-12-29T00:59:07;10.30;99.90
23731;DHT22;12046;44.702;10.622;2022-12-29T01:01:33;10.30;99.90
23731;DHT22;12046;44.702;10.622;2022-12-29T01:04:00;10.30;99.90
23731;DHT22;12046;44.702;10.622;2022-12-29T01:06:26;10.30;99.90
23731;DHT22;12046;44.702;10.622;2022-12-29T01:08:52;10.30;99.90
23731;DHT22;12046;44.702;10.622;2022-12-29T01:11:38;10.30;99.90
23731;DHT22;12046;44.702;10.622;2022-12-29T01:14:05;10.20;99.90
23731;DHT22;12046;44.702;10.622;2022-12-29T01:16:31;10.10;99.90
23731;DHT22;12046;44.702;10.622;2022-12-29T01:18:57;10.10;99.90
23731;DHT22;12046;44.702;10.622;2022-12-29T01:21:23;10.10;99.90
23731;DHT22;12046;44.702;10.622;2022-12-29T01:23:49;10.20;99.90
23731;DHT22;12046;44.702;10.622;2022-12-29T01:26:17;10.20;99.90
23731;DHT22;12046;44.702;10.622;2022-12-29T01:28:43;10.20;99.90
23731;DHT22;12046;44.702;10.622;2022-12-29T01:31:11;10.10;99.90
23731;DHT22;12046;44.702;10.622;2022-12-29T01:33:38;10.10;99.90
23731;DHT22;12046;44.702;10.622;2022-12-29T01:36:06;10.20;99.90
23731;DHT22;12046;44.702;10.622;2022-12-29T01:38:33;10.20;99.90
23731;DHT22;12046;44.702;10.622;2022-12-29T01:41:00;10.20;99.90
23731;DHT22;12046;44.702;10.622;2022-12-29T01:43:45;10.10;99.90
23731;DHT22;12046;44.702;10.622;2022-12-29T01:46:26;10.10;99.90
23731;DHT22;12046;44.702;10.622;2022-12-29T01:49:18;10.10;99.90
23731;DHT22;12046;44.702;10.622;2022-12-29T01:52:10;10.10;99.90
23731;DHT22;12046;44.702;10.622;2022-12-29T01:54:43;10.10;99.90
23731;DHT22;12046;44.702;10.622;2022-12-29T01:57:19;10.10;99.90
23731;DHT22;12046;44.702;10.622;2022-12-29T02:00:08;10.10;99.90
23731;DHT22;12046;44.702;10.622;2022-12-29T02:02:35;10.10;99.90
23731;DHT22;12046;44.702;10.622;2022-12-29T02:05:07;10.10;99.90
23731;DHT22;12046;44.702;10.622;2022-12-29T02:07:34;10.10;99.90
23731;DHT22;12046;44.702;10.622;2022-12-29T02:10:01;10.10;99.90
23731;DHT22;12046;44.702;10.622;2022-12-29T02:12:27;10.10;99.90
23731;DHT22;12046;44.702;10.622;2022-12-29T02:14:57;10.10;99.90
23731;DHT22;12046;44.702;10.622;2022-12-29T02:26:43;10.00;99.90
23731;DHT22;12046;44.702;10.622;2022-12-29T02:35:02;9.80;99.90
23731;DHT22;12046;44.702;10.622;2022-12-29T02:38:05;9.80;99.90
23731;DHT22;12046;44.702;10.622;2022-12-29T02:44:15;9.90;99.90
23731;DHT22;12046;44.702;10.622;2022-12-29T02:46:19;10.00;99.90
23731;DHT22;12046;44.702;10.622;2022-12-29T02:48:54;9.90;99.90
23731;DHT22;12046;44.702;10.622;2022-12-29T02:51:37;9.90;99.90
23731;DHT22;12046;44.702;10.622;2022-12-29T02:54:04;10.00;99.90
23731;DHT22;12046;44.702;10.622;2022-12-29T02:56:49;10.00;99.90
23731;DHT22;12046;44.702;10.622;2022-12-29T02:59:15;10.00;99.90
23731;DHT22;12046;44.702;10.622;2022-12-29T03:02:30;10.00;99.90
23731;DHT22;12046;44.702;10.622;2022-12-29T03:07:25;9.90;99.90
23731;DHT22;12046;44.702;10.622;2022-12-29T03:12:46;9.90;99.90
23731;DHT22;12046;44.702;10.622;2022-12-29T03:15:42;9.90;99.90
23731;DHT22;12046;44.702;10.622;2022-12-29T03:18:41;10.00;99.90
23731;DHT22;12046;44.702;10.622;2022-12-29T03:21:11;10.00;99.90
23731;DHT22;12046;44.702;10.622;2022-12-29T03:23:39;10.00;99.90
23731;DHT22;12046;44.702;10.622;2022-12-29T03:26:09;10.00;99.90
23731;DHT22;12046;44.702;10.622;2022-12-29T03:28:44;10.00;99.90
23731;DHT22;12046;44.702;10.622;2022-12-29T03:31:12;10.00;99.90
23731;DHT22;12046;44.702;10.622;2022-12-29T03:33:39;10.00;99.90
23731;DHT22;12046;44.702;10.622;2022-12-29T03:36:09;10.00;99.90
23731;DHT22;12046;44.702;10.622;2022-12-29T03:38:53;10.00;99.90
23731;DHT22;12046;44.702;10.622;2022-12-29T03:41:26;10.00;99.90
23731;DHT22;12046;44.702;10.622;2022-12-29T03:43:54;10.00;99.90
23731;DHT22;12046;44.702;10.622;2022-12-29T03:46:20;10.00;99.90
23731;DHT22;12046;44.702;10.622;2022-12-29T03:48:45;10.00;99.90
23731;DHT22;12046;44.702;10.622;2022-12-29T03:51:11;10.00;99.90
23731;DHT22;12046;44.702;10.622;2022-12-29T03:53:37;10.00;99.90
23731;DHT22;12046;44.702;10.622;2022-12-29T03:56:03;10.00;99.90
23731;DHT22;12046;44.702;10.622;2022-12-29T03:58:29;10.00;99.90
23731;DHT22;12046;44.702;10.622;2022-12-29T04:00:56;10.00;99.90
23731;DHT22;12046;44.702;10.622;2022-12-29T04:03:22;10.00;99.90
23731;DHT22;12046;44.702;10.622;2022-12-29T04:05:48;10.00;99.90
23731;DHT22;12046;44.702;10.622;2022-12-29T04:08:13;10.00;99.90
23731;DHT22;12046;44.702;10.622;2022-12-29T04:10:40;10.00;99.90
23731;DHT22;12046;44.702;10.622;2022-12-29T04:13:05;10.00;99.90
23731;DHT22;12046;44.702;10.622;2022-12-29T04:15:32;10.00;99.90
23731;DHT22;12046;44.702;10.622;2022-12-29T04:17:57;10.00;99.90
23731;DHT22;12046;44.702;10.622;2022-12-29T04:20:23;10.00;99.90
23731;DHT22;12046;44.702;10.622;2022-12-29T04:23:08;10.00;99.90
23731;DHT22;12046;44.702;10.622;2022-12-29T04:25:34;10.00;99.90
23731;DHT22;12046;44.702;10.622;2022-12-29T04:28:00;10.00;99.90
23731;DHT22;12046;44.702;10.622;2022-12-29T04:30:26;10.00;99.90
23731;DHT22;12046;44.702;10.622;2022-12-29T04:32:53;10.00;99.90
23731;DHT22;12046;44.702;10.622;2022-12-29T04:35:19;10.00;99.90
23731;DHT22;12046;44.702;10.622;2022-12-29T04:37:44;10.00;99.90
23731;DHT22;12046;44.702;10.622;2022-12-29T04:40:11;10.00;99.90
23731;DHT22;12046;44.702;10.622;2022-12-29T04:42:37;10.00;99.90
23731;DHT22;12046;44.702;10.622;2022-12-29T04:45:03;10.00;99.90
23731;DHT22;12046;44.702;10.622;2022-12-29T04:47:29;10.00;99.90
23731;DHT22;12046;44.702;10.622;2022-12-29T04:49:55;10.00;99.90
23731;DHT22;12046;44.702;10.622;2022-12-29T04:52:21;10.00;99.90
23731;DHT22;12046;44.702;10.622;2022-12-29T04:54:47;10.00;99.90
23731;DHT22;12046;44.702;10.622;2022-12-29T04:57:13;10.00;99.90
23731;DHT22;12046;44.702;10.622;2022-12-29T04:59:39;10.00;99.90
23731;DHT22;12046;44.702;10.622;2022-12-29T05:02:05;10.00;99.90
23731;DHT22;12046;44.702;10.622;2022-12-29T05:04:30;9.90;99.90
23731;DHT22;12046;44.702;10.622;2022-12-29T05:06:56;9.90;99.90
23731;DHT22;12046;44.702;10.622;2022-12-29T05:09:22;9.90;99.90
23731;DHT22;12046;44.702;10.622;2022-12-29T05:11:49;9.90;99.90
23731;DHT22;12046;44.702;10.622;2022-12-29T05:14:15;9.90;99.90
23731;DHT22;12046;44.702;10.622;2022-12-29T05:16:41;9.90;99.90
23731;DHT22;12046;44.702;10.622;2022-12-29T05:19:07;9.90;99.90
23731;DHT22;12046;44.702;10.622;2022-12-29T05:21:33;9.90;99.90
23731;DHT22;12046;44.702;10.622;2022-12-29T05:23:59;9.90;99.90
23731;DHT22;12046;44.702;10.622;2022-12-29T05:26:24;9.80;99.90
23731;DHT22;12046;44.702;10.622;2022-12-29T05:28:50;9.80;99.90
23731;DHT22;12046;44.702;10.622;2022-12-29T05:31:16;9.80;99.90
23731;DHT22;12046;44.702;10.622;2022-12-29T05:33:42;9.70;99.90
23731;DHT22;12046;44.702;10.622;2022-12-29T05:36:09;9.80;99.90
23731;DHT22;12046;44.702;10.622;2022-12-29T05:38:35;9.70;99.90
23731;DHT22;12046;44.702;10.622;2022-12-29T05:41:01;9.80;99.90
23731;DHT22;12046;44.702;10.622;2022-12-29T05:43:27;9.80;99.90
23731;DHT22;12046;44.702;10.622;2022-12-29T05:45:53;9.80;99.90
23731;DHT22;12046;44.702;10.622;2022-12-29T05:48:19;9.80;99.90
23731;DHT22;12046;44.702;10.622;2022-12-29T05:50:49;9.80;99.90
23731;DHT22;12046;44.702;10.622;2022-12-29T05:53:15;9.80;99.90
23731;DHT22;12046;44.702;10.622;2022-12-29T05:55:42;9.80;99.90
23731;DHT22;12046;44.702;10.622;2022-12-29T05:58:08;9.80;99.90
23731;DHT22;12046;44.702;10.622;2022-12-29T06:00:34;9.80;99.90
23731;DHT22;12046;44.702;10.622;2022-12-29T06:03:00;9.70;99.90
23731;DHT22;12046;44.702;10.622;2022-12-29T06:05:26;9.70;99.90
23731;DHT22;12046;44.702;10.622;2022-12-29T06:07:52;9.80;99.90
23731;DHT22;12046;44.702;10.622;2022-12-29T06:10:19;9.80;99.90
23731;DHT22;12046;44.702;10.622;2022-12-29T06:12:45;9.80;99.90
23731;DHT22;12046;44.702;10.622;2022-12-29T06:15:12;9.80;99.90
23731;DHT22;12046;44.702;10.622;2022-12-29T06:17:38;9.70;99.90
23731;DHT22;12046;44.702;10.622;2022-12-29T06:20:05;9.80;99.90
23731;DHT22;12046;44.702;10.622;2022-12-29T06:22:31;9.80;99.90
23731;DHT22;12046;44.702;10.622;2022-12-29T06:24:57;9.70;99.90
23731;DHT22;12046;44.702;10.622;2022-12-29T06:27:23;9.70;99.90
23731;DHT22;12046;44.702;10.622;2022-12-29T06:29:49;9.70;99.90
23731;DHT22;12046;44.702;10.622;2022-12-29T06:32:16;9.70;99.90
23731;DHT22;12046;44.702;10.622;2022-12-29T06:34:41;9.70;99.90
23731;DHT22;12046;44.702;10.622;2022-12-29T06:37:07;9.70;99.90
23731;DHT22;12046;44.702;10.622;2022-12-29T06:39:33;9.70;99.90
23731;DHT22;12046;44.702;10.622;2022-12-29T06:41:59;9.80;99.90
23731;DHT22;12046;44.702;10.622;2022-12-29T06:44:25;9.80;99.90
23731;DHT22;12046;44.702;10.622;2022-12-29T06:46:51;9.80;99.90
23731;DHT22;12046;44.702;10.622;2022-12-29T06:49:17;9.70;99.90
23731;DHT22;12046;44.702;10.622;2022-12-29T06:51:43;9.70;99.90
23731;DHT22;12046;44.702;10.622;2022-12-29T06:54:09;9.60;99.90
23731;DHT22;12046;44.702;10.622;2022-12-29T06:56:35;9.50;99.90
23731;DHT22;12046;44.702;10.622;2022-12-29T06:59:01;9.40;99.90
23731;DHT22;12046;44.702;10.622;2022-12-29T07:01:27;9.30;99.90
23731;DHT22;12046;44.702;10.622;2022-12-29T07:03:53;9.30;99.90
23731;DHT22;12046;44.702;10.622;2022-12-29T07:06:19;9.30;99.90
23731;DHT22;12046;44.702;10.622;2022-12-29T07:08:45;9.40;99.90
23731;DHT22;12046;44.702;10.622;2022-12-29T07:11:11;9.40;99.90
23731;DHT22;12046;44.702;10.622;2022-12-29T07:13:37;9.40;99.90
23731;DHT22;12046;44.702;10.622;2022-12-29T07:16:10;9.50;99.90
23731;DHT22;12046;44.702;10.622;2022-12-29T07:18:36;9.50;99.90
23731;DHT22;12046;44.702;10.622;2022-12-29T07:21:02;9.50;99.90
23731;DHT22;12046;44.702;10.622;2022-12-29T07:23:28;9.50;99.90
23731;DHT22;12046;44.702;10.622;2022-12-29T07:26:05;9.50;99.90
23731;DHT22;12046;44.702;10.622;2022-12-29T07:28:32;9.50;99.90
23731;DHT22;12046;44.702;10.622;2022-12-29T07:30:58;9.50;99.90
23731;DHT22;12046;44.702;10.622;2022-12-29T07:33:25;9.60;99.90
23731;DHT22;12046;44.702;10.622;2022-12-29T07:35:51;9.50;99.90
23731;DHT22;12046;44.702;10.622;2022-12-29T07:38:16;9.60;99.90
23731;DHT22;12046;44.702;10.622;2022-12-29T07:40:43;9.60;99.90
23731;DHT22;12046;44.702;10.622;2022-12-29T07:43:09;9.60;99.90
23731;DHT22;12046;44.702;10.622;2022-12-29T07:45:34;9.30;99.90
23731;DHT22;12046;44.702;10.622;2022-12-29T07:48:00;9.20;99.90
23731;DHT22;12046;44.702;10.622;2022-12-29T07:50:28;9.30;99.90
23731;DHT22;12046;44.702;10.622;2022-12-29T07:52:54;9.40;99.90
23731;DHT22;12046;44.702;10.622;2022-12-29T07:55:20;9.40;99.90
23731;DHT22;12046;44.702;10.622;2022-12-29T07:57:46;9.50;99.90
23731;DHT22;12046;44.702;10.622;2022-12-29T08:00:12;9.60;99.90
23731;DHT22;12046;44.702;10.622;2022-12-29T08:02:38;9.50;99.90
23731;DHT22;12046;44.702;10.622;2022-12-29T08:05:05;9.50;99.90
23731;DHT22;12046;44.702;10.622;2022-12-29T08:07:31;9.50;99.90
23731;DHT22;12046;44.702;10.622;2022-12-29T08:09:56;9.60;99.90
23731;DHT22;12046;44.702;10.622;2022-12-29T08:12:23;9.60;99.90
23731;DHT22;12046;44.702;10.622;2022-12-29T08:14:49;9.60;99.90
23731;DHT22;12046;44.702;10.622;2022-12-29T08:17:15;9.70;99.90
23731;DHT22;12046;44.702;10.622;2022-12-29T08:19:41;9.80;99.90
23731;DHT22;12046;44.702;10.622;2022-12-29T08:22:08;9.90;99.90
23731;DHT22;12046;44.702;10.622;2022-12-29T08:24:34;9.90;99.90
23731;DHT22;12046;44.702;10.622;2022-12-29T08:27:01;9.90;99.90
23731;DHT22;12046;44.702;10.622;2022-12-29T08:29:27;9.90;99.90
23731;DHT22;12046;44.702;10.622;2022-12-29T08:31:53;9.90;99.90
23731;DHT22;12046;44.702;10.622;2022-12-29T08:34:19;9.90;99.90
23731;DHT22;12046;44.702;10.622;2022-12-29T08:36:45;9.90;99.90
23731;DHT22;12046;44.702;10.622;2022-12-29T08:39:10;9.80;99.90
23731;DHT22;12046;44.702;10.622;2022-12-29T08:41:36;9.70;99.90
23731;DHT22;12046;44.702;10.622;2022-12-29T08:44:02;9.70;99.90
23731;DHT22;12046;44.702;10.622;2022-12-29T08:46:28;9.80;99.90
23731;DHT22;12046;44.702;10.622;2022-12-29T08:48:54;9.80;99.90
23731;DHT22;12046;44.702;10.622;2022-12-29T08:51:20;9.70;99.90
23731;DHT22;12046;44.702;10.622;2022-12-29T08:53:47;9.80;99.90
23731;DHT22;12046;44.702;10.622;2022-12-29T08:56:13;9.80;99.90
23731;DHT22;12046;44.702;10.622;2022-12-29T08:58:39;9.80;99.90
23731;DHT22;12046;44.702;10.622;2022-12-29T09:01:04;9.80;99.90
23731;DHT22;12046;44.702;10.622;2022-12-29T09:03:30;9.90;99.90
23731;DHT22;12046;44.702;10.622;2022-12-29T09:05:56;10.00;99.90
23731;DHT22;12046;44.702;10.622;2022-12-29T09:08:23;10.00;99.90
23731;DHT22;12046;44.702;10.622;2022-12-29T09:10:49;10.00;99.90
23731;DHT22;12046;44.702;10.622;2022-12-29T09:13:16;10.00;99.90
23731;DHT22;12046;44.702;10.622;2022-12-29T09:15:42;9.90;99.90
23731;DHT22;12046;44.702;10.622;2022-12-29T09:18:09;9.90;99.90
23731;DHT22;12046;44.702;10.622;2022-12-29T09:20:36;9.90;99.90
23731;DHT22;12046;44.702;10.622;2022-12-29T09:23:02;10.00;99.90
23731;DHT22;12046;44.702;10.622;2022-12-29T09:25:29;10.00;99.90
23731;DHT22;12046;44.702;10.622;2022-12-29T09:27:55;10.00;99.90
23731;DHT22;12046;44.702;10.622;2022-12-29T09:30:22;10.10;99.90
23731;DHT22;12046;44.702;10.622;2022-12-29T09:32:49;10.00;99.90
23731;DHT22;12046;44.702;10.622;2022-12-29T09:35:15;10.10;99.90
23731;DHT22;12046;44.702;10.622;2022-12-29T09:37:46;10.10;99.90
23731;DHT22;12046;44.702;10.622;2022-12-29T09:45:42;10.10;99.90
23731;DHT22;12046;44.702;10.622;2022-12-29T09:48:23;10.20;99.90
23731;DHT22;12046;44.702;10.622;2022-12-29T09:50:56;10.20;99.90
23731;DHT22;12046;44.702;10.622;2022-12-29T09:53:31;10.20;99.90
23731;DHT22;12046;44.702;10.622;2022-12-29T09:56:00;10.30;99.90
23731;DHT22;12046;44.702;10.622;2022-12-29T09:58:40;10.30;99.90
23731;DHT22;12046;44.702;10.622;2022-12-29T10:03:50;10.30;99.90
23731;DHT22;12046;44.702;10.622;2022-12-29T10:12:16;9.90;99.90
23731;DHT22;12046;44.702;10.622;2022-12-29T10:15:01;9.90;99.90
23731;DHT22;12046;44.702;10.622;2022-12-29T10:25:45;10.20;99.90
23731;DHT22;12046;44.702;10.622;2022-12-29T10:28:19;10.20;99.90
23731;DHT22;12046;44.702;10.622;2022-12-29T10:30:48;10.30;99.90
23731;DHT22;12046;44.702;10.622;2022-12-29T10:33:32;10.70;99.90
23731;DHT22;12046;44.702;10.622;2022-12-29T10:41:50;10.90;99.90
23731;DHT22;12046;44.702;10.622;2022-12-29T10:44:17;10.90;99.90
23731;DHT22;12046;44.702;10.622;2022-12-29T10:46:57;10.80;99.90
23731;DHT22;12046;44.702;10.622;2022-12-29T10:49:27;10.70;99.90
23731;DHT22;12046;44.702;10.622;2022-12-29T10:51:57;10.60;99.90
23731;DHT22;12046;44.702;10.622;2022-12-29T10:54:29;10.50;99.90
23731;DHT22;12046;44.702;10.622;2022-12-29T10:59:43;10.30;99.90
23731;DHT22;12046;44.702;10.622;2022-12-29T11:04:57;10.10;99.90
23731;DHT22;12046;44.702;10.622;2022-12-29T11:07:31;10.10;99.90
23731;DHT22;12046;44.702;10.622;2022-12-29T11:13:48;10.20;99.90
23731;DHT22;12046;44.702;10.622;2022-12-29T11:16:14;10.30;99.90
23731;DHT22;12046;44.702;10.622;2022-12-29T11:18:41;10.30;99.90
23731;DHT22;12046;44.702;10.622;2022-12-29T11:24:04;10.10;99.90
23731;DHT22;12046;44.702;10.622;2022-12-29T11:26:33;10.10;99.90
23731;DHT22;12046;44.702;10.622;2022-12-29T11:29:24;10.20;99.90
23731;DHT22;12046;44.702;10.622;2022-12-29T11:31:53;10.20;99.90
23731;DHT22;12046;44.702;10.622;2022-12-29T11:34:27;10.20;99.90
23731;DHT22;12046;44.702;10.622;2022-12-29T11:37:10;10.20;99.90
23731;DHT22;12046;44.702;10.622;2022-12-29T11:42:16;10.10;99.90
23731;DHT22;12046;44.702;10.622;2022-12-29T11:44:45;10.10;99.90
23731;DHT22;12046;44.702;10.622;2022-12-29T11:47:21;10.10;99.90
23731;DHT22;12046;44.702;10.622;2022-12-29T11:49:54;10.10;99.90
23731;DHT22;12046;44.702;10.622;2022-12-29T11:52:23;10.20;99.90
23731;DHT22;12046;44.702;10.622;2022-12-29T11:54:50;10.20;99.90
23731;DHT22;12046;44.702;10.622;2022-12-29T11:57:18;10.20;99.90
23731;DHT22;12046;44.702;10.622;2022-12-29T11:59:55;10.10;99.90
23731;DHT22;12046;44.702;10.622;2022-12-29T12:05:28;10.10;99.90
23731;DHT22;12046;44.702;10.622;2022-12-29T12:10:38;10.30;99.90
23731;DHT22;12046;44.702;10.622;2022-12-29T12:15:56;10.50;99.90
23731;DHT22;12046;44.702;10.622;2022-12-29T12:18:30;10.50;99.90
23731;DHT22;12046;44.702;10.622;2022-12-29T12:21:10;10.50;99.90
23731;DHT22;12046;44.702;10.622;2022-12-29T12:26:53;10.50;99.90
23731;DHT22;12046;44.702;10.622;2022-12-29T12:29:28;10.50;99.90
23731;DHT22;12046;44.702;10.622;2022-12-29T12:32:04;10.50;99.90
23731;DHT22;12046;44.702;10.622;2022-12-29T12:34:41;10.50;99.90
23731;DHT22;12046;44.702;10.622;2022-12-29T12:40:11;10.50;99.90
23731;DHT22;12046;44.702;10.622;2022-12-29T12:45:55;10.50;99.90
23731;DHT22;12046;44.702;10.622;2022-12-29T13:10:12;10.40;99.90
23731;DHT22;12046;44.702;10.622;2022-12-29T13:13:06;10.40;99.90
23731;DHT22;12046;44.702;10.622;2022-12-29T13:19:01;10.40;99.90
23731;DHT22;12046;44.702;10.622;2022-12-29T13:26:23;10.40;99.90
23731;DHT22;12046;44.702;10.622;2022-12-29T13:29:15;10.30;99.90
23731;DHT22;12046;44.702;10.622;2022-12-29T13:32:18;10.30;99.90
23731;DHT22;12046;44.702;10.622;2022-12-29T13:40:40;10.40;99.90
23731;DHT22;12046;44.702;10.622;2022-12-29T13:43:08;10.40;99.90
23731;DHT22;12046;44.702;10.622;2022-12-29T13:45:35;10.50;99.90
23731;DHT22;12046;44.702;10.622;2022-12-29T13:50:48;10.50;99.90
23731;DHT22;12046;44.702;10.622;2022-12-29T14:01:42;10.40;99.90
23731;DHT22;12046;44.702;10.622;2022-12-29T14:04:14;10.40;99.90
23731;DHT22;12046;44.702;10.622;2022-12-29T14:06:41;10.40;99.90
23731;DHT22;12046;44.702;10.622;2022-12-29T14:09:56;10.40;99.90
23731;DHT22;12046;44.702;10.622;2022-12-29T14:15:23;10.30;99.90
23731;DHT22;12046;44.702;10.622;2022-12-29T14:18:16;10.30;99.90
23731;DHT22;12046;44.702;10.622;2022-12-29T14:23:43;10.30;99.90
23731;DHT22;12046;44.702;10.622;2022-12-29T14:28:55;10.30;99.90
23731;DHT22;12046;44.702;10.622;2022-12-29T14:45:03;10.30;99.90
23731;DHT22;12046;44.702;10.622;2022-12-29T14:50:42;10.30;99.90
23731;DHT22;12046;44.702;10.622;2022-12-29T14:55:37;10.30;99.90
23731;DHT22;12046;44.702;10.622;2022-12-29T14:58:06;10.40;99.90
23731;DHT22;12046;44.702;10.622;2022-12-29T15:00:38;10.40;99.90
23731;DHT22;12046;44.702;10.622;2022-12-29T15:05:53;10.40;99.90
23731;DHT22;12046;44.702;10.622;2022-12-29T15:08:24;10.40;99.90
23731;DHT22;12046;44.702;10.622;2022-12-29T15:10:59;10.40;99.90
23731;DHT22;12046;44.702;10.622;2022-12-29T15:13:38;10.50;99.90
23731;DHT22;12046;44.702;10.622;2022-12-29T15:16:24;10.40;99.90
23731;DHT22;12046;44.702;10.622;2022-12-29T15:18:50;10.40;99.90
23731;DHT22;12046;44.702;10.622;2022-12-29T15:21:17;10.40;99.90
23731;DHT22;12046;44.702;10.622;2022-12-29T15:23:46;10.40;99.90
23731;DHT22;12046;44.702;10.622;2022-12-29T15:26:13;10.40;99.90
23731;DHT22;12046;44.702;10.622;2022-12-29T15:28:47;10.50;99.90
23731;DHT22;12046;44.702;10.622;2022-12-29T15:33:43;10.50;99.90
23731;DHT22;12046;44.702;10.622;2022-12-29T15:36:12;10.50;99.90
23731;DHT22;12046;44.702;10.622;2022-12-29T15:38:39;10.50;99.90
23731;DHT22;12046;44.702;10.622;2022-12-29T15:41:15;10.50;99.90
23731;DHT22;12046;44.702;10.622;2022-12-29T15:46:23;10.40;99.90
23731;DHT22;12046;44.702;10.622;2022-12-29T15:48:49;10.40;99.90
23731;DHT22;12046;44.702;10.622;2022-12-29T15:51:20;10.30;99.90
23731;DHT22;12046;44.702;10.622;2022-12-29T15:53:50;10.40;99.90
23731;DHT22;12046;44.702;10.622;2022-12-29T15:56:18;10.40;99.90
23731;DHT22;12046;44.702;10.622;2022-12-29T15:58:49;10.40;99.90
23731;DHT22;12046;44.702;10.622;2022-12-29T16:01:36;10.40;99.90
23731;DHT22;12046;44.702;10.622;2022-12-29T16:04:08;10.40;99.90
23731;DHT22;12046;44.702;10.622;2022-12-29T16:06:36;10.40;99.90
23731;DHT22;12046;44.702;10.622;2022-12-29T16:09:17;10.40;99.90
23731;DHT22;12046;44.702;10.622;2022-12-29T16:11:46;10.30;99.90
23731;DHT22;12046;44.702;10.622;2022-12-29T16:14:17;10.20;99.90
23731;DHT22;12046;44.702;10.622;2022-12-29T16:16:44;10.20;99.90
23731;DHT22;12046;44.702;10.622;2022-12-29T16:19:35;10.20;99.90
23731;DHT22;12046;44.702;10.622;2022-12-29T16:22:03;10.20;99.90
23731;DHT22;12046;44.702;10.622;2022-12-29T16:24:31;10.20;99.90
23731;DHT22;12046;44.702;10.622;2022-12-29T16:27:21;10.20;99.90
23731;DHT22;12046;44.702;10.622;2022-12-29T16:29:53;10.10;99.90
23731;DHT22;12046;44.702;10.622;2022-12-29T16:32:26;10.20;99.90
23731;DHT22;12046;44.702;10.622;2022-12-29T16:37:35;10.20;99.90
23731;DHT22;12046;44.702;10.622;2022-12-29T16:40:37;10.20;99.90
23731;DHT22;12046;44.702;10.622;2022-12-29T16:43:04;10.20;99.90
23731;DHT22;12046;44.702;10.622;2022-12-29T16:50:42;10.20;99.90
23731;DHT22;12046;44.702;10.622;2022-12-29T16:53:27;10.10;99.90
23731;DHT22;12046;44.702;10.622;2022-12-29T16:55:54;10.10;99.90
23731;DHT22;12046;44.702;10.622;2022-12-29T16:58:29;10.10;99.90
23731;DHT22;12046;44.702;10.622;2022-12-29T17:00:58;10.10;99.90
23731;DHT22;12046;44.702;10.622;2022-12-29T17:03:33;10.10;99.90
23731;DHT22;12046;44.702;10.622;2022-12-29T17:06:00;10.10;99.90
23731;DHT22;12046;44.702;10.622;2022-12-29T17:08:26;10.20;99.90
23731;DHT22;12046;44.702;10.622;2022-12-29T17:10:56;10.10;99.90
23731;DHT22;12046;44.702;10.622;2022-12-29T17:13:41;10.10;99.90
23731;DHT22;12046;44.702;10.622;2022-12-29T17:16:10;10.10;99.90
23731;DHT22;12046;44.702;10.622;2022-12-29T17:18:36;10.20;99.90
23731;DHT22;12046;44.702;10.622;2022-12-29T17:21:02;10.10;99.90
23731;DHT22;12046;44.702;10.622;2022-12-29T17:23:31;10.10;99.90
23731;DHT22;12046;44.702;10.622;2022-12-29T17:26:02;10.20;99.90
23731;DHT22;12046;44.702;10.622;2022-12-29T17:28:31;10.20;99.90
23731;DHT22;12046;44.702;10.622;2022-12-29T17:31:04;10.20;99.90
23731;DHT22;12046;44.702;10.622;2022-12-29T17:33:37;10.20;99.90
23731;DHT22;12046;44.702;10.622;2022-12-29T17:36:05;10.20;99.90
23731;DHT22;12046;44.702;10.622;2022-12-29T17:38:36;10.20;99.90
23731;DHT22;12046;44.702;10.622;2022-12-29T17:41:03;10.20;99.90
23731;DHT22;12046;44.702;10.622;2022-12-29T17:43:35;10.30;99.90
23731;DHT22;12046;44.702;10.622;2022-12-29T17:46:04;10.30;99.90
23731;DHT22;12046;44.702;10.622;2022-12-29T17:48:32;10.30;99.90
23731;DHT22;12046;44.702;10.622;2022-12-29T17:51:00;10.30;99.90
23731;DHT22;12046;44.702;10.622;2022-12-29T17:53:29;10.30;99.90
23731;DHT22;12046;44.702;10.622;2022-12-29T17:55:56;10.20;99.90
23731;DHT22;12046;44.702;10.622;2022-12-29T17:58:26;10.20;99.90
23731;DHT22;12046;44.702;10.622;2022-12-29T18:00:57;10.00;99.90
23731;DHT22;12046;44.702;10.622;2022-12-29T18:03:32;10.10;99.90
23731;DHT22;12046;44.702;10.622;2022-12-29T18:06:00;10.10;99.90
23731;DHT22;12046;44.702;10.622;2022-12-29T18:08:28;10.00;99.90
23731;DHT22;12046;44.702;10.622;2022-12-29T18:10:55;10.00;99.90
23731;DHT22;12046;44.702;10.622;2022-12-29T18:13:31;10.00;99.90
23731;DHT22;12046;44.702;10.622;2022-12-29T18:15:59;10.00;99.90
23731;DHT22;12046;44.702;10.622;2022-12-29T18:18:26;10.10;99.90
23731;DHT22;12046;44.702;10.622;2022-12-29T18:20:54;10.10;99.90
23731;DHT22;12046;44.702;10.622;2022-12-29T18:23:22;10.10;99.90
23731;DHT22;12046;44.702;10.622;2022-12-29T18:25:55;10.10;99.90
23731;DHT22;12046;44.702;10.622;2022-12-29T18:28:24;10.20;99.90
23731;DHT22;12046;44.702;10.622;2022-12-29T18:30:51;10.20;99.90
23731;DHT22;12046;44.702;10.622;2022-12-29T18:33:20;10.10;99.90
23731;DHT22;12046;44.702;10.622;2022-12-29T18:36:02;10.10;99.90